sensor_id;sensor_type;location;lat;lon;timestamp;pressure;altitude;pressure_sealevel;temperature;humidity
70968;BME280;58629;48.808;8.820;2023-05-03T00:00:05;97956.72;;;7.10;97.56
70968;BME280;58629;48.808;8.820;2023-05-03T00:02:33;97964.69;;;7.17;97.05
70968;BME280;58629;48.808;8.820;2023-05-03T00:04:59;97957.63;;;7.25;96.78
70968;BME280;58629;48.808;8.820;2023-05-03T00:07:24;97969.34;;;7.31;96.55
70968;BME280;58629;48.808;8.820;2023-05-03T00:09:50;97964.09;;;7.34;96.14
70968;BME280;58629;48.808;8.820;2023-05-03T00:12:16;97963.75;;;7.39;95.42
70968;BME280;58629;48.808;8.820;2023-05-03T00:14:41;97964.13;;;7.38;95.51
70968;BME280;58629;48.808;8.820;2023-05-03T00:17:06;97960.38;;;7.39;94.79
70968;BME280;58629;48.808;8.820;2023-05-03T00:19:31;97960.38;;;7.42;96.14
70968;BME280;58629;48.808;8.820;2023-05-03T00:21:58;97960.00;;;7.40;94.92
70968;BME280;58629;48.808;8.820;2023-05-03T00:24:23;97954.34;;;7.38;94.37
70968;BME280;58629;48.808;8.820;2023-05-03T00:26:49;97959.91;;;7.30;92.80
70968;BME280;58629;48.808;8.820;2023-05-03T00:29:14;97953.31;;;7.10;93.36
70968;BME280;58629;48.808;8.820;2023-05-03T00:31:42;97948.72;;;6.99;94.40
70968;BME280;58629;48.808;8.820;2023-05-03T00:34:08;97952.31;;;6.81;94.09
70968;BME280;58629;48.808;8.820;2023-05-03T00:36:33;97943.44;;;6.59;96.59
70968;BME280;58629;48.808;8.820;2023-05-03T00:38:58;97943.69;;;6.47;98.90
70968;BME280;58629;48.808;8.820;2023-05-03T00:41:24;97942.50;;;6.45;100.00
70968;BME280;58629;48.808;8.820;2023-05-03T00:43:50;97935.78;;;6.47;100.00
70968;BME280;58629;48.808;8.820;2023-05-03T00:46:15;97932.03;;;6.48;100.00
70968;BME280;58629;48.808;8.820;2023-05-03T00:48:40;97929.81;;;6.54;100.00
70968;BME280;58629;48.808;8.820;2023-05-03T00:51:07;97927.31;;;6.64;100.00
70968;BME280;58629;48.808;8.820;2023-05-03T00:53:32;97930.03;;;6.71;100.00
70968;BME280;58629;48.808;8.820;2023-05-03T00:55:59;97925.94;;;6.77;99.88
70968;BME280;58629;48.808;8.820;2023-05-03T00:58:25;97937.84;;;6.64;97.58
70968;BME280;58629;48.808;8.820;2023-05-03T01:00:51;97932.81;;;6.52;97.10
70968;BME280;58629;48.808;8.820;2023-05-03T01:03:16;97927.84;;;6.44;98.52
70968;BME280;58629;48.808;8.820;2023-05-03T01:09:01;97926.09;;;6.55;99.88
70968;BME280;58629;48.808;8.820;2023-05-03T01:11:36;97927.28;;;6.61;99.62
70968;BME280;58629;48.808;8.820;2023-05-03T01:14:53;97928.69;;;6.51;98.37
70968;BME280;58629;48.808;8.820;2023-05-03T01:17:28;97924.13;;;6.48;99.03
70968;BME280;58629;48.808;8.820;2023-05-03T01:20:06;97923.94;;;6.31;100.00
70968;BME280;58629;48.808;8.820;2023-05-03T01:22:51;97929.19;;;6.31;100.00
70968;BME280;58629;48.808;8.820;2023-05-03T01:25:20;97928.03;;;6.28;100.00
70968;BME280;58629;48.808;8.820;2023-05-03T01:27:46;97924.66;;;6.28;100.00
70968;BME280;58629;48.808;8.820;2023-05-03T01:30:12;97922.84;;;6.32;100.00
70968;BME280;58629;48.808;8.820;2023-05-03T01:35:43;97915.44;;;6.44;100.00
70968;BME280;58629;48.808;8.820;2023-05-03T01:38:12;97912.91;;;6.51;100.00
70968;BME280;58629;48.808;8.820;2023-05-03T01:40:44;97915.97;;;6.57;100.00
70968;BME280;58629;48.808;8.820;2023-05-03T01:43:12;97915.06;;;6.46;100.00
70968;BME280;58629;48.808;8.820;2023-05-03T01:45:40;97913.03;;;6.32;100.00
70968;BME280;58629;48.808;8.820;2023-05-03T01:48:14;97908.34;;;6.15;100.00
70968;BME280;58629;48.808;8.820;2023-05-03T01:50:39;97905.72;;;6.15;100.00
70968;BME280;58629;48.808;8.820;2023-05-03T01:53:04;97905.34;;;6.17;100.00
70968;BME280;58629;48.808;8.820;2023-05-03T01:55:30;97903.84;;;6.16;100.00
70968;BME280;58629;48.808;8.820;2023-05-03T01:57:55;97905.38;;;6.20;100.00
70968;BME280;58629;48.808;8.820;2023-05-03T02:00:21;97909.59;;;6.25;100.00
70968;BME280;58629;48.808;8.820;2023-05-03T02:02:46;97907.63;;;6.18;100.00
70968;BME280;58629;48.808;8.820;2023-05-03T02:05:12;97909.59;;;5.95;100.00
70968;BME280;58629;48.808;8.820;2023-05-03T02:07:37;97907.31;;;5.93;100.00
70968;BME280;58629;48.808;8.820;2023-05-03T02:10:04;97905.47;;;5.94;100.00
70968;BME280;58629;48.808;8.820;2023-05-03T02:12:30;97905.53;;;6.01;100.00
70968;BME280;58629;48.808;8.820;2023-05-03T02:14:55;97901.34;;;5.96;100.00
70968;BME280;58629;48.808;8.820;2023-05-03T02:17:20;97899.41;;;5.90;100.00
70968;BME280;58629;48.808;8.820;2023-05-03T02:19:50;97902.72;;;5.87;100.00
70968;BME280;58629;48.808;8.820;2023-05-03T02:22:16;97903.84;;;5.86;100.00
70968;BME280;58629;48.808;8.820;2023-05-03T02:24:41;97903.56;;;5.94;100.00
70968;BME280;58629;48.808;8.820;2023-05-03T02:27:07;97898.59;;;5.86;100.00
70968;BME280;58629;48.808;8.820;2023-05-03T02:29:32;97892.41;;;5.75;100.00
70968;BME280;58629;48.808;8.820;2023-05-03T02:31:58;97897.94;;;5.66;100.00
70968;BME280;58629;48.808;8.820;2023-05-03T02:34:23;97890.84;;;5.70;100.00
70968;BME280;58629;48.808;8.820;2023-05-03T02:36:48;97895.31;;;5.66;100.00
70968;BME280;58629;48.808;8.820;2023-05-03T02:39:14;97897.13;;;5.62;100.00
70968;BME280;58629;48.808;8.820;2023-05-03T02:41:39;97896.00;;;5.63;100.00
70968;BME280;58629;48.808;8.820;2023-05-03T02:44:04;97894.53;;;5.66;100.00
70968;BME280;58629;48.808;8.820;2023-05-03T02:46:30;97896.41;;;5.65;100.00
70968;BME280;58629;48.808;8.820;2023-05-03T02:48:55;97893.78;;;5.65;100.00
70968;BME280;58629;48.808;8.820;2023-05-03T02:51:20;97893.34;;;5.60;100.00
70968;BME280;58629;48.808;8.820;2023-05-03T02:53:46;97893.69;;;5.58;100.00
70968;BME280;58629;48.808;8.820;2023-05-03T02:56:11;97889.91;;;5.56;100.00
70968;BME280;58629;48.808;8.820;2023-05-03T02:58:36;97893.53;;;5.48;100.00
70968;BME280;58629;48.808;8.820;2023-05-03T03:01:01;97898.03;;;5.47;100.00
70968;BME280;58629;48.808;8.820;2023-05-03T03:03:27;97896.25;;;5.28;100.00
70968;BME280;58629;48.808;8.820;2023-05-03T03:05:52;97900.75;;;5.28;100.00
70968;BME280;58629;48.808;8.820;2023-05-03T03:08:17;97896.31;;;5.32;100.00
70968;BME280;58629;48.808;8.820;2023-05-03T03:10:43;97898.22;;;5.35;100.00
70968;BME280;58629;48.808;8.820;2023-05-03T03:13:08;97899.34;;;5.34;100.00
70968;BME280;58629;48.808;8.820;2023-05-03T03:15:33;97891.41;;;5.31;100.00
70968;BME280;58629;48.808;8.820;2023-05-03T03:17:58;97892.47;;;5.26;100.00
70968;BME280;58629;48.808;8.820;2023-05-03T03:20:24;97891.88;;;5.13;100.00
70968;BME280;58629;48.808;8.820;2023-05-03T03:22:50;97902.09;;;5.18;100.00
70968;BME280;58629;48.808;8.820;2023-05-03T03:25:15;97893.88;;;5.20;100.00
70968;BME280;58629;48.808;8.820;2023-05-03T03:27:40;97901.34;;;5.18;100.00
70968;BME280;58629;48.808;8.820;2023-05-03T03:30:07;97903.19;;;5.17;100.00
70968;BME280;58629;48.808;8.820;2023-05-03T03:32:33;97900.53;;;5.14;100.00
70968;BME280;58629;48.808;8.820;2023-05-03T03:34:59;97903.56;;;5.16;100.00
70968;BME280;58629;48.808;8.820;2023-05-03T03:37:24;97904.69;;;5.15;100.00
70968;BME280;58629;48.808;8.820;2023-05-03T03:39:50;97906.50;;;5.11;100.00
70968;BME280;58629;48.808;8.820;2023-05-03T03:42:15;97899.44;;;5.15;100.00
70968;BME280;58629;48.808;8.820;2023-05-03T03:44:40;97910.44;;;5.01;98.92
70968;BME280;58629;48.808;8.820;2023-05-03T03:47:06;97913.34;;;4.74;98.39
70968;BME280;58629;48.808;8.820;2023-05-03T03:49:31;97915.09;;;4.66;99.59
70968;BME280;58629;48.808;8.820;2023-05-03T03:51:56;97916.69;;;4.52;99.07
70968;BME280;58629;48.808;8.820;2023-05-03T03:54:22;97920.84;;;4.14;99.39
70968;BME280;58629;48.808;8.820;2023-05-03T03:56:47;97920.47;;;3.97;100.00
70968;BME280;58629;48.808;8.820;2023-05-03T03:59:12;97921.44;;;3.89;100.00
70968;BME280;58629;48.808;8.820;2023-05-03T04:01:37;97927.19;;;3.79;100.00
70968;BME280;58629;48.808;8.820;2023-05-03T04:04:03;97924.78;;;3.70;100.00
70968;BME280;58629;48.808;8.820;2023-05-03T04:06:28;97935.50;;;3.65;100.00
70968;BME280;58629;48.808;8.820;2023-05-03T04:08:54;97937.19;;;3.73;100.00
70968;BME280;58629;48.808;8.820;2023-05-03T04:11:19;97927.44;;;3.89;100.00
70968;BME280;58629;48.808;8.820;2023-05-03T04:13:45;97936.69;;;4.02;100.00
70968;BME280;58629;48.808;8.820;2023-05-03T04:16:10;97933.94;;;4.14;100.00
70968;BME280;58629;48.808;8.820;2023-05-03T04:18:36;97935.25;;;4.24;100.00
70968;BME280;58629;48.808;8.820;2023-05-03T04:21:01;97933.88;;;4.30;100.00
70968;BME280;58629;48.808;8.820;2023-05-03T04:23:26;97933.31;;;4.40;100.00
70968;BME280;58629;48.808;8.820;2023-05-03T04:25:52;97931.25;;;4.49;100.00
70968;BME280;58629;48.808;8.820;2023-05-03T04:28:17;97938.63;;;4.63;100.00
70968;BME280;58629;48.808;8.820;2023-05-03T04:30:43;97933.19;;;4.71;100.00
70968;BME280;58629;48.808;8.820;2023-05-03T04:33:11;97932.59;;;4.81;100.00
70968;BME280;58629;48.808;8.820;2023-05-03T04:35:36;97936.09;;;4.89;100.00
70968;BME280;58629;48.808;8.820;2023-05-03T04:38:02;97939.59;;;4.96;100.00
70968;BME280;58629;48.808;8.820;2023-05-03T04:40:27;97933.31;;;5.01;100.00
70968;BME280;58629;48.808;8.820;2023-05-03T04:42:53;97929.75;;;5.12;100.00
70968;BME280;58629;48.808;8.820;2023-05-03T04:45:18;97935.47;;;5.18;100.00
70968;BME280;58629;48.808;8.820;2023-05-03T04:47:44;97934.47;;;5.26;100.00
70968;BME280;58629;48.808;8.820;2023-05-03T04:50:10;97932.66;;;5.30;100.00
70968;BME280;58629;48.808;8.820;2023-05-03T04:52:35;97933.88;;;5.36;100.00
70968;BME280;58629;48.808;8.820;2023-05-03T04:55:00;97931.03;;;5.45;100.00
70968;BME280;58629;48.808;8.820;2023-05-03T04:57:26;97932.53;;;5.46;100.00
70968;BME280;58629;48.808;8.820;2023-05-03T04:59:51;97939.31;;;5.47;100.00
70968;BME280;58629;48.808;8.820;2023-05-03T05:02:18;97942.03;;;5.54;100.00
70968;BME280;58629;48.808;8.820;2023-05-03T05:04:43;97933.50;;;5.60;100.00
70968;BME280;58629;48.808;8.820;2023-05-03T05:07:08;97942.25;;;5.68;100.00
70968;BME280;58629;48.808;8.820;2023-05-03T05:09:34;97943.09;;;5.75;100.00
70968;BME280;58629;48.808;8.820;2023-05-03T05:11:59;97945.91;;;5.86;100.00
70968;BME280;58629;48.808;8.820;2023-05-03T05:14:26;97946.03;;;5.96;100.00
70968;BME280;58629;48.808;8.820;2023-05-03T05:16:52;97954.00;;;6.00;100.00
70968;BME280;58629;48.808;8.820;2023-05-03T05:19:17;97942.38;;;6.04;100.00
70968;BME280;58629;48.808;8.820;2023-05-03T05:21:43;97948.03;;;6.06;100.00
70968;BME280;58629;48.808;8.820;2023-05-03T05:24:08;97947.03;;;6.14;100.00
70968;BME280;58629;48.808;8.820;2023-05-03T05:26:33;97949.28;;;6.16;100.00
70968;BME280;58629;48.808;8.820;2023-05-03T05:28:58;97947.53;;;6.24;100.00
70968;BME280;58629;48.808;8.820;2023-05-03T05:31:24;97945.00;;;6.34;100.00
70968;BME280;58629;48.808;8.820;2023-05-03T05:33:49;97951.88;;;6.42;100.00
70968;BME280;58629;48.808;8.820;2023-05-03T05:36:15;97947.84;;;6.52;100.00
70968;BME280;58629;48.808;8.820;2023-05-03T05:38:41;97950.63;;;6.66;100.00
70968;BME280;58629;48.808;8.820;2023-05-03T05:41:07;97950.34;;;6.74;100.00
70968;BME280;58629;48.808;8.820;2023-05-03T05:43:32;97941.84;;;6.88;100.00
70968;BME280;58629;48.808;8.820;2023-05-03T05:45:57;97938.91;;;6.93;100.00
70968;BME280;58629;48.808;8.820;2023-05-03T05:48:23;97938.56;;;7.01;100.00
70968;BME280;58629;48.808;8.820;2023-05-03T05:50:48;97944.34;;;7.14;100.00
70968;BME280;58629;48.808;8.820;2023-05-03T05:53:13;97945.91;;;7.22;100.00
70968;BME280;58629;48.808;8.820;2023-05-03T05:55:39;97949.78;;;7.35;100.00
70968;BME280;58629;48.808;8.820;2023-05-03T05:58:04;97939.31;;;7.42;100.00
70968;BME280;58629;48.808;8.820;2023-05-03T06:00:29;97936.41;;;7.58;100.00
70968;BME280;58629;48.808;8.820;2023-05-03T06:02:55;97944.28;;;7.54;99.03
70968;BME280;58629;48.808;8.820;2023-05-03T06:05:20;97946.28;;;7.71;99.69
70968;BME280;58629;48.808;8.820;2023-05-03T06:07:47;97945.59;;;7.81;98.73
70968;BME280;58629;48.808;8.820;2023-05-03T06:10:12;97944.91;;;7.95;99.25
70968;BME280;58629;48.808;8.820;2023-05-03T06:12:38;97941.94;;;8.00;97.52
70968;BME280;58629;48.808;8.820;2023-05-03T06:15:03;97940.50;;;8.13;96.67
70968;BME280;58629;48.808;8.820;2023-05-03T06:17:29;97946.25;;;8.26;96.70
70968;BME280;58629;48.808;8.820;2023-05-03T06:19:55;97940.25;;;8.36;95.92
70968;BME280;58629;48.808;8.820;2023-05-03T06:22:21;97941.00;;;8.40;93.93
70968;BME280;58629;48.808;8.820;2023-05-03T06:24:46;97940.66;;;8.48;95.09
70968;BME280;58629;48.808;8.820;2023-05-03T06:27:11;97943.72;;;8.57;95.46
70968;BME280;58629;48.808;8.820;2023-05-03T06:29:37;97944.88;;;8.67;94.99
70968;BME280;58629;48.808;8.820;2023-05-03T06:32:02;97953.56;;;8.67;92.07
70968;BME280;58629;48.808;8.820;2023-05-03T06:34:27;97947.91;;;8.69;92.93
70968;BME280;58629;48.808;8.820;2023-05-03T06:36:53;97955.84;;;8.72;91.66
70968;BME280;58629;48.808;8.820;2023-05-03T06:39:19;97961.50;;;8.71;93.38
70968;BME280;58629;48.808;8.820;2023-05-03T06:41:44;97955.13;;;8.93;95.21
70968;BME280;58629;48.808;8.820;2023-05-03T06:44:10;97946.09;;;9.05;95.08
70968;BME280;58629;48.808;8.820;2023-05-03T06:46:35;97949.13;;;9.10;91.92
70968;BME280;58629;48.808;8.820;2023-05-03T06:49:00;97953.63;;;9.13;90.81
70968;BME280;58629;48.808;8.820;2023-05-03T06:51:26;97945.00;;;9.27;91.29
70968;BME280;58629;48.808;8.820;2023-05-03T06:53:58;97940.44;;;9.27;90.41
70968;BME280;58629;48.808;8.820;2023-05-03T06:56:31;97938.19;;;9.29;90.30
70968;BME280;58629;48.808;8.820;2023-05-03T06:58:57;97941.59;;;9.23;89.54
70968;BME280;58629;48.808;8.820;2023-05-03T07:01:22;97940.06;;;9.39;91.00
70968;BME280;58629;48.808;8.820;2023-05-03T07:03:47;97938.94;;;9.30;91.10
70968;BME280;58629;48.808;8.820;2023-05-03T07:06:13;97933.25;;;9.45;92.82
70968;BME280;58629;48.808;8.820;2023-05-03T07:08:39;97931.38;;;9.49;89.35
70968;BME280;58629;48.808;8.820;2023-05-03T07:11:04;97927.56;;;9.72;90.92
70968;BME280;58629;48.808;8.820;2023-05-03T07:13:30;97932.06;;;9.89;90.46
70968;BME280;58629;48.808;8.820;2023-05-03T07:15:55;97928.69;;;9.92;88.77
70968;BME280;58629;48.808;8.820;2023-05-03T07:18:21;97937.34;;;9.96;88.64
70968;BME280;58629;48.808;8.820;2023-05-03T07:20:46;97930.97;;;9.86;85.87
70968;BME280;58629;48.808;8.820;2023-05-03T07:23:11;97927.16;;;9.87;86.77
70968;BME280;58629;48.808;8.820;2023-05-03T07:25:36;97929.03;;;10.01;87.49
70968;BME280;58629;48.808;8.820;2023-05-03T07:28:03;97927.84;;;10.23;88.73
70968;BME280;58629;48.808;8.820;2023-05-03T07:30:29;97919.44;;;10.42;88.12
70968;BME280;58629;48.808;8.820;2023-05-03T07:32:54;97919.03;;;10.51;85.31
70968;BME280;58629;48.808;8.820;2023-05-03T07:35:19;97914.06;;;10.63;85.58
70968;BME280;58629;48.808;8.820;2023-05-03T07:37:45;97920.91;;;10.57;84.57
70968;BME280;58629;48.808;8.820;2023-05-03T07:40:10;97919.75;;;10.55;87.77
70968;BME280;58629;48.808;8.820;2023-05-03T07:42:36;97921.91;;;10.81;86.58
70968;BME280;58629;48.808;8.820;2023-05-03T07:45:01;97923.66;;;10.98;84.69
70968;BME280;58629;48.808;8.820;2023-05-03T07:47:27;97916.41;;;11.05;83.54
70968;BME280;58629;48.808;8.820;2023-05-03T07:49:53;97915.56;;;11.22;83.69
70968;BME280;58629;48.808;8.820;2023-05-03T07:52:19;97920.31;;;11.42;83.11
70968;BME280;58629;48.808;8.820;2023-05-03T07:54:44;97909.63;;;11.52;81.81
70968;BME280;58629;48.808;8.820;2023-05-03T07:57:13;97914.81;;;11.63;82.51
70968;BME280;58629;48.808;8.820;2023-05-03T07:59:39;97908.31;;;11.71;81.72
70968;BME280;58629;48.808;8.820;2023-05-03T08:02:04;97909.84;;;11.72;81.85
70968;BME280;58629;48.808;8.820;2023-05-03T08:04:30;97902.88;;;11.85;80.95
70968;BME280;58629;48.808;8.820;2023-05-03T08:06:55;97908.53;;;11.90;80.17
70968;BME280;58629;48.808;8.820;2023-05-03T08:09:20;97909.41;;;12.14;80.59
70968;BME280;58629;48.808;8.820;2023-05-03T08:11:47;97916.34;;;12.35;79.44
70968;BME280;58629;48.808;8.820;2023-05-03T08:14:12;97917.41;;;12.41;78.98
70968;BME280;58629;48.808;8.820;2023-05-03T08:16:38;97914.53;;;12.58;78.73
70968;BME280;58629;48.808;8.820;2023-05-03T08:19:03;97918.09;;;12.75;77.66
70968;BME280;58629;48.808;8.820;2023-05-03T08:21:29;97921.91;;;12.74;75.34
70968;BME280;58629;48.808;8.820;2023-05-03T08:23:55;97916.50;;;12.81;75.43
70968;BME280;58629;48.808;8.820;2023-05-03T08:26:20;97919.22;;;12.77;75.31
70968;BME280;58629;48.808;8.820;2023-05-03T08:28:48;97917.00;;;12.99;75.99
70968;BME280;58629;48.808;8.820;2023-05-03T08:31:13;97928.09;;;13.21;76.43
70968;BME280;58629;48.808;8.820;2023-05-03T08:33:39;97920.31;;;13.56;74.17
70968;BME280;58629;48.808;8.820;2023-05-03T08:36:04;97923.28;;;14.01;69.39
70968;BME280;58629;48.808;8.820;2023-05-03T08:38:30;97922.06;;;13.63;69.28
70968;BME280;58629;48.808;8.820;2023-05-03T08:40:57;97922.09;;;13.17;72.46
70968;BME280;58629;48.808;8.820;2023-05-03T08:43:26;97923.41;;;13.28;72.43
70968;BME280;58629;48.808;8.820;2023-05-03T08:45:52;97923.31;;;12.82;72.44
70968;BME280;58629;48.808;8.820;2023-05-03T08:48:17;97923.88;;;13.23;72.36
70968;BME280;58629;48.808;8.820;2023-05-03T08:50:43;97926.53;;;13.23;71.98
70968;BME280;58629;48.808;8.820;2023-05-03T08:53:09;97918.16;;;13.25;72.52
70968;BME280;58629;48.808;8.820;2023-05-03T08:55:35;97933.03;;;13.68;72.41
70968;BME280;58629;48.808;8.820;2023-05-03T08:58:02;97926.97;;;14.07;71.01
70968;BME280;58629;48.808;8.820;2023-05-03T09:00:34;97920.97;;;14.23;67.74
70968;BME280;58629;48.808;8.820;2023-05-03T09:03:00;97923.47;;;13.90;69.50
70968;BME280;58629;48.808;8.820;2023-05-03T09:05:33;97922.50;;;13.38;71.19
70968;BME280;58629;48.808;8.820;2023-05-03T09:10:28;97917.56;;;14.22;70.59
70968;BME280;58629;48.808;8.820;2023-05-03T09:13:01;97914.09;;;14.45;70.91
70968;BME280;58629;48.808;8.820;2023-05-03T09:15:30;97913.88;;;14.91;69.91
70968;BME280;58629;48.808;8.820;2023-05-03T09:18:14;97911.63;;;15.22;67.92
70968;BME280;58629;48.808;8.820;2023-05-03T09:20:41;97917.78;;;14.31;68.09
70968;BME280;58629;48.808;8.820;2023-05-03T09:23:15;97914.19;;;13.99;69.96
70968;BME280;58629;48.808;8.820;2023-05-03T09:25:46;97916.41;;;13.38;73.34
70968;BME280;58629;48.808;8.820;2023-05-03T09:28:13;97911.16;;;14.00;72.00
70968;BME280;58629;48.808;8.820;2023-05-03T09:30:39;97908.84;;;14.41;72.24
70968;BME280;58629;48.808;8.820;2023-05-03T09:33:05;97918.56;;;14.67;68.35
70968;BME280;58629;48.808;8.820;2023-05-03T09:35:32;97914.88;;;14.97;67.60
70968;BME280;58629;48.808;8.820;2023-05-03T09:37:57;97914.38;;;14.66;67.65
70968;BME280;58629;48.808;8.820;2023-05-03T09:40:25;97906.94;;;15.26;67.27
70968;BME280;58629;48.808;8.820;2023-05-03T09:45:35;97897.09;;;16.12;62.84
70968;BME280;58629;48.808;8.820;2023-05-03T09:48:02;97903.38;;;16.47;62.09
70968;BME280;58629;48.808;8.820;2023-05-03T09:50:30;97907.53;;;16.48;62.29
70968;BME280;58629;48.808;8.820;2023-05-03T09:52:59;97905.25;;;16.63;61.54
70968;BME280;58629;48.808;8.820;2023-05-03T09:55:26;97901.63;;;16.69;61.46
70968;BME280;58629;48.808;8.820;2023-05-03T09:57:53;97907.72;;;16.82;59.50
70968;BME280;58629;48.808;8.820;2023-05-03T10:00:19;97900.72;;;16.47;61.21
70968;BME280;58629;48.808;8.820;2023-05-03T10:02:47;97901.81;;;17.00;59.42
70968;BME280;58629;48.808;8.820;2023-05-03T10:05:14;97900.72;;;17.35;58.95
70968;BME280;58629;48.808;8.820;2023-05-03T10:07:42;97902.44;;;17.76;60.01
70968;BME280;58629;48.808;8.820;2023-05-03T10:10:08;97898.56;;;17.77;57.70
70968;BME280;58629;48.808;8.820;2023-05-03T10:12:34;97903.50;;;17.78;55.99
70968;BME280;58629;48.808;8.820;2023-05-03T10:15:02;97897.88;;;17.64;58.35
70968;BME280;58629;48.808;8.820;2023-05-03T10:17:33;97892.00;;;18.12;57.14
70968;BME280;58629;48.808;8.820;2023-05-03T10:20:07;97891.16;;;17.47;56.82
70968;BME280;58629;48.808;8.820;2023-05-03T10:25:30;97899.63;;;17.79;56.41
70968;BME280;58629;48.808;8.820;2023-05-03T10:28:06;97893.34;;;18.16;56.28
70968;BME280;58629;48.808;8.820;2023-05-03T10:30:33;97887.84;;;18.42;56.22
70968;BME280;58629;48.808;8.820;2023-05-03T10:35:50;97881.44;;;19.19;53.55
70968;BME280;58629;48.808;8.820;2023-05-03T10:38:26;97885.22;;;18.90;51.67
70968;BME280;58629;48.808;8.820;2023-05-03T10:40:53;97879.50;;;19.28;53.83
70968;BME280;58629;48.808;8.820;2023-05-03T10:46:00;97878.84;;;18.97;52.15
70968;BME280;58629;48.808;8.820;2023-05-03T10:48:26;97880.47;;;18.85;53.01
70968;BME280;58629;48.808;8.820;2023-05-03T10:50:53;97882.19;;;18.70;51.63
70968;BME280;58629;48.808;8.820;2023-05-03T10:56:07;97864.06;;;18.92;52.32
70968;BME280;58629;48.808;8.820;2023-05-03T10:58:44;97862.88;;;18.93;51.54
70968;BME280;58629;48.808;8.820;2023-05-03T11:01:12;97860.06;;;18.97;51.60
70968;BME280;58629;48.808;8.820;2023-05-03T11:06:38;97847.03;;;18.77;49.52
70968;BME280;58629;48.808;8.820;2023-05-03T11:09:06;97845.78;;;19.09;51.11
70968;BME280;58629;48.808;8.820;2023-05-03T11:11:37;97837.41;;;19.16;50.13
70968;BME280;58629;48.808;8.820;2023-05-03T11:14:04;97840.22;;;19.03;49.33
70968;BME280;58629;48.808;8.820;2023-05-03T11:16:29;97844.03;;;19.42;49.95
70968;BME280;58629;48.808;8.820;2023-05-03T11:18:55;97839.72;;;19.45;48.98
70968;BME280;58629;48.808;8.820;2023-05-03T11:21:21;97839.41;;;19.70;47.98
70968;BME280;58629;48.808;8.820;2023-05-03T11:23:47;97827.31;;;19.47;48.08
70968;BME280;58629;48.808;8.820;2023-05-03T11:26:12;97824.94;;;19.76;49.91
70968;BME280;58629;48.808;8.820;2023-05-03T11:28:38;97827.88;;;19.24;47.84
70968;BME280;58629;48.808;8.820;2023-05-03T11:31:05;97829.41;;;19.43;48.46
70968;BME280;58629;48.808;8.820;2023-05-03T11:33:32;97823.06;;;18.92;47.63
70968;BME280;58629;48.808;8.820;2023-05-03T11:36:02;97833.06;;;19.10;48.65
70968;BME280;58629;48.808;8.820;2023-05-03T11:38:30;97829.88;;;19.33;46.99
70968;BME280;58629;48.808;8.820;2023-05-03T11:40:56;97828.22;;;19.44;48.00
70968;BME280;58629;48.808;8.820;2023-05-03T11:43:22;97817.16;;;19.78;47.22
70968;BME280;58629;48.808;8.820;2023-05-03T11:45:49;97823.75;;;19.68;46.47
70968;BME280;58629;48.808;8.820;2023-05-03T11:48:16;97818.03;;;19.94;46.25
70968;BME280;58629;48.808;8.820;2023-05-03T11:50:49;97819.09;;;19.69;45.21
70968;BME280;58629;48.808;8.820;2023-05-03T11:53:25;97819.97;;;19.93;45.71
70968;BME280;58629;48.808;8.820;2023-05-03T11:55:53;97817.53;;;20.13;46.54
70968;BME280;58629;48.808;8.820;2023-05-03T11:58:22;97807.66;;;20.61;46.27
70968;BME280;58629;48.808;8.820;2023-05-03T12:00:50;97816.22;;;20.50;44.22
70968;BME280;58629;48.808;8.820;2023-05-03T12:03:17;97811.09;;;20.11;43.55
70968;BME280;58629;48.808;8.820;2023-05-03T12:05:42;97823.56;;;20.50;44.67
70968;BME280;58629;48.808;8.820;2023-05-03T12:08:09;97820.44;;;19.82;44.92
70968;BME280;58629;48.808;8.820;2023-05-03T12:10:35;97824.91;;;19.22;46.13
70968;BME280;58629;48.808;8.820;2023-05-03T12:13:00;97824.81;;;18.86;47.70
70968;BME280;58629;48.808;8.820;2023-05-03T12:15:30;97818.16;;;18.99;47.94
70968;BME280;58629;48.808;8.820;2023-05-03T12:17:58;97815.91;;;18.89;47.84
70968;BME280;58629;48.808;8.820;2023-05-03T12:20:24;97811.34;;;19.80;47.04
70968;BME280;58629;48.808;8.820;2023-05-03T12:22:51;97800.13;;;20.41;47.12
70968;BME280;58629;48.808;8.820;2023-05-03T12:25:17;97802.47;;;20.81;45.05
70968;BME280;58629;48.808;8.820;2023-05-03T12:27:43;97793.09;;;21.24;44.78
70968;BME280;58629;48.808;8.820;2023-05-03T12:30:09;97790.75;;;21.17;40.53
70968;BME280;58629;48.808;8.820;2023-05-03T12:32:35;97788.28;;;21.28;41.78
70968;BME280;58629;48.808;8.820;2023-05-03T12:35:03;97780.84;;;21.90;42.41
70968;BME280;58629;48.808;8.820;2023-05-03T12:37:29;97786.97;;;21.91;44.49
70968;BME280;58629;48.808;8.820;2023-05-03T12:39:54;97776.66;;;21.75;41.43
70968;BME280;58629;48.808;8.820;2023-05-03T12:42:21;97777.72;;;21.53;41.02
70968;BME280;58629;48.808;8.820;2023-05-03T12:44:46;97778.75;;;21.56;42.24
70968;BME280;58629;48.808;8.820;2023-05-03T12:47:11;97772.41;;;21.83;39.17
70968;BME280;58629;48.808;8.820;2023-05-03T12:49:37;97768.94;;;21.82;39.10
70968;BME280;58629;48.808;8.820;2023-05-03T12:52:02;97774.31;;;21.68;37.54
70968;BME280;58629;48.808;8.820;2023-05-03T12:54:28;97770.56;;;21.65;40.33
70968;BME280;58629;48.808;8.820;2023-05-03T12:56:53;97770.31;;;21.78;39.61
70968;BME280;58629;48.808;8.820;2023-05-03T12:59:19;97776.63;;;21.60;40.01
70968;BME280;58629;48.808;8.820;2023-05-03T13:01:44;97774.72;;;21.90;41.04
70968;BME280;58629;48.808;8.820;2023-05-03T13:04:10;97771.53;;;22.20;39.05
70968;BME280;58629;48.808;8.820;2023-05-03T13:06:38;97764.47;;;21.94;38.93
70968;BME280;58629;48.808;8.820;2023-05-03T13:09:05;97762.81;;;21.96;38.92
70968;BME280;58629;48.808;8.820;2023-05-03T13:11:31;97760.84;;;22.11;36.86
70968;BME280;58629;48.808;8.820;2023-05-03T13:13:56;97752.81;;;22.31;37.89
70968;BME280;58629;48.808;8.820;2023-05-03T13:16:21;97762.50;;;22.58;38.72
70968;BME280;58629;48.808;8.820;2023-05-03T13:18:48;97752.00;;;22.11;37.54
70968;BME280;58629;48.808;8.820;2023-05-03T13:21:19;97754.13;;;22.21;37.08
70968;BME280;58629;48.808;8.820;2023-05-03T13:23:44;97746.78;;;22.22;37.94